createdAt,value
2018-08-17T00:00:35.536Z,4.20
2018-08-17T00:03:04.292Z,4.13
2018-08-17T00:05:32.954Z,3.87
2018-08-17T00:08:01.550Z,3.97
2018-08-17T00:10:30.460Z,4.07
2018-08-17T00:12:59.229Z,4.30
2018-08-17T00:15:27.953Z,4.27
2018-08-17T00:17:56.632Z,4.60
2018-08-17T00:20:25.220Z,4.22
2018-08-17T00:22:53.896Z,4.63
2018-08-17T00:25:22.619Z,4.30
2018-08-17T00:27:51.365Z,3.83
2018-08-17T00:30:20.198Z,4.30
2018-08-17T00:32:48.848Z,4.40
2018-08-17T00:35:17.460Z,4.57
2018-08-17T00:37:46.182Z,4.40
2018-08-17T00:40:15.460Z,4.67
2018-08-17T00:42:45.157Z,4.00
2018-08-17T00:45:13.994Z,4.47
2018-08-17T00:47:43.277Z,4.97
2018-08-17T00:50:11.865Z,4.60
2018-08-17T00:52:40.535Z,4.37
2018-08-17T00:55:09.180Z,4.50
2018-08-17T00:57:37.829Z,4.80
2018-08-17T01:00:06.837Z,4.33
2018-08-17T01:02:35.500Z,5.00
2018-08-17T01:05:04.687Z,4.40
2018-08-17T01:07:33.400Z,5.17
2018-08-17T01:10:01.996Z,5.13
2018-08-17T01:12:30.681Z,5.00
2018-08-17T01:14:59.340Z,5.40
2018-08-17T01:17:27.981Z,5.17
2018-08-17T01:19:56.622Z,4.97
2018-08-17T01:22:25.334Z,5.70
2018-08-17T01:24:53.934Z,5.40
2018-08-17T01:27:22.700Z,5.80
2018-08-17T01:29:52.517Z,6.00
2018-08-17T01:32:21.241Z,5.80
2018-08-17T01:34:49.799Z,5.67
2018-08-17T01:37:18.393Z,6.17
2018-08-17T01:39:47.181Z,6.30
2018-08-17T01:42:16.791Z,6.30
2018-08-17T01:44:45.460Z,6.20
2018-08-17T01:47:14.189Z,6.30
2018-08-17T01:49:43.800Z,5.80
2018-08-17T01:52:12.372Z,6.50
2018-08-17T01:54:42.899Z,6.60
2018-08-17T01:57:11.672Z,7.00
2018-08-17T01:59:40.340Z,6.97
2018-08-17T02:02:09.037Z,6.67
2018-08-17T02:04:37.682Z,6.60
2018-08-17T02:07:06.481Z,6.37
2018-08-17T02:09:35.148Z,6.40
2018-08-17T02:12:03.865Z,7.00
2018-08-17T02:14:32.433Z,6.50
2018-08-17T02:17:01.167Z,6.50
2018-08-17T02:19:29.906Z,7.10
2018-08-17T02:21:58.594Z,7.03
2018-08-17T02:24:27.430Z,6.80
2018-08-17T02:26:56.172Z,7.70
2018-08-17T02:29:24.837Z,7.40
2018-08-17T02:31:53.875Z,7.27
2018-08-17T02:34:22.473Z,7.97
2018-08-17T02:36:51.569Z,7.87
2018-08-17T02:39:20.399Z,8.10
2018-08-17T02:41:49.132Z,8.50
2018-08-17T02:44:17.834Z,8.13
2018-08-17T02:46:46.439Z,9.17
2018-08-17T02:49:16.124Z,9.17
2018-08-17T02:51:44.820Z,9.40
2018-08-17T02:54:13.441Z,9.77
2018-08-17T02:56:42.084Z,10.30
2018-08-17T02:59:10.902Z,9.83
2018-08-17T03:01:40.289Z,8.80
2018-08-17T03:04:09.925Z,10.40
2018-08-17T03:06:39.417Z,9.70
2018-08-17T03:09:10.816Z,9.90
2018-08-17T03:11:39.496Z,9.83
2018-08-17T03:14:08.353Z,10.00
2018-08-17T03:16:37.073Z,10.17
2018-08-17T03:19:05.965Z,10.00
2018-08-17T03:21:34.812Z,10.37
2018-08-17T03:24:03.457Z,10.13
2018-08-17T03:26:32.021Z,10.73
2018-08-17T03:29:00.705Z,10.30
2018-08-17T03:31:29.310Z,10.07
2018-08-17T03:33:57.880Z,9.03
2018-08-17T03:36:28.667Z,8.30
2018-08-17T03:38:57.230Z,8.23
2018-08-17T03:41:25.783Z,8.20
2018-08-17T03:43:54.433Z,9.33
2018-08-17T03:46:23.184Z,9.23
2018-08-17T03:48:51.838Z,8.03
2018-08-17T03:51:20.637Z,8.47
2018-08-17T03:53:50.262Z,8.30
2018-08-17T03:56:18.944Z,8.03
2018-08-17T03:58:47.548Z,9.63
2018-08-17T04:01:16.232Z,9.07
2018-08-17T04:03:45.049Z,10.03
2018-08-17T04:06:13.720Z,10.43
2018-08-17T04:08:42.402Z,9.30
2018-08-17T04:11:11.004Z,9.20
2018-08-17T04:13:40.100Z,9.63
2018-08-17T04:16:08.845Z,9.50
2018-08-17T04:18:37.820Z,10.43
2018-08-17T04:21:06.504Z,10.33
2018-08-17T04:23:35.173Z,11.30
2018-08-17T04:26:03.853Z,11.93
2018-08-17T04:28:32.543Z,10.80
2018-08-17T04:31:01.168Z,11.33
2018-08-17T04:33:29.836Z,11.90
2018-08-17T04:35:58.512Z,12.27
2018-08-17T04:38:27.212Z,11.93
2018-08-17T04:40:55.877Z,12.20
2018-08-17T04:43:24.572Z,11.27
2018-08-17T04:45:53.193Z,12.60
2018-08-17T04:48:21.949Z,12.27
2018-08-17T04:50:50.699Z,12.60
2018-08-17T04:53:19.398Z,11.23
2018-08-17T04:55:48.037Z,12.07
2018-08-17T04:58:16.654Z,11.37
2018-08-17T05:00:45.947Z,10.68
2018-08-17T05:03:14.534Z,11.90
2018-08-17T05:05:43.606Z,11.80
2018-08-17T05:08:12.276Z,12.37
2018-08-17T05:10:40.993Z,13.27
2018-08-17T05:13:09.650Z,13.40
2018-08-17T05:15:38.495Z,12.80
2018-08-17T05:18:07.300Z,12.77
2018-08-17T05:20:38.773Z,12.77
2018-08-17T05:23:07.730Z,12.10
2018-08-17T05:25:36.332Z,11.97
2018-08-17T05:28:06.557Z,12.53
2018-08-17T05:30:35.256Z,12.90
2018-08-17T05:33:03.953Z,12.67
2018-08-17T05:35:32.593Z,12.87
2018-08-17T05:38:01.289Z,13.00
2018-08-17T05:40:29.906Z,12.00
2018-08-17T05:42:58.546Z,12.90
2018-08-17T05:45:29.199Z,13.17
2018-08-17T05:47:57.908Z,12.50
2018-08-17T05:50:26.584Z,12.03
2018-08-17T05:52:56.320Z,12.20
2018-08-17T05:55:24.941Z,12.30
2018-08-17T05:57:53.659Z,11.93
2018-08-17T06:00:22.389Z,11.53
2018-08-17T06:02:51.256Z,11.63
2018-08-17T06:05:19.928Z,12.33
2018-08-17T06:07:48.809Z,11.60
2018-08-17T06:10:17.640Z,11.83
2018-08-17T06:12:46.365Z,11.90
2018-08-17T06:15:15.214Z,12.07
2018-08-17T06:17:43.830Z,11.57
2018-08-17T06:20:13.629Z,11.20
2018-08-17T06:22:43.300Z,11.10
2018-08-17T06:25:13.945Z,11.40
2018-08-17T06:27:47.836Z,10.67
2018-08-17T06:30:16.405Z,10.33
2018-08-17T06:32:45.109Z,10.90
2018-08-17T06:35:14.604Z,11.80
2018-08-17T06:37:44.125Z,10.40
2018-08-17T06:40:12.938Z,10.63
2018-08-17T06:42:41.657Z,10.97
2018-08-17T06:45:12.020Z,10.50
2018-08-17T06:47:40.909Z,10.67
2018-08-17T06:50:10.655Z,9.40
2018-08-17T06:52:40.569Z,9.57
2018-08-17T06:55:10.673Z,9.57
2018-08-17T06:57:39.890Z,9.07
2018-08-17T07:00:12.042Z,8.87
2018-08-17T07:02:40.984Z,8.83
2018-08-17T07:05:09.813Z,8.40
2018-08-17T07:07:38.616Z,8.10
2018-08-17T07:10:08.172Z,8.17
2018-08-17T07:12:36.944Z,7.50
2018-08-17T07:15:06.193Z,7.70
2018-08-17T07:17:34.942Z,7.57
2018-08-17T07:20:03.807Z,7.57
2018-08-17T07:22:32.499Z,6.77
2018-08-17T07:25:01.549Z,6.53
2018-08-17T07:27:30.342Z,6.93
2018-08-17T07:30:00.213Z,6.87
2018-08-17T07:32:29.789Z,7.33
2018-08-17T07:34:58.595Z,6.63
2018-08-17T07:37:27.238Z,6.23
2018-08-17T07:39:55.876Z,5.90
2018-08-17T07:42:25.078Z,6.17
2018-08-17T07:44:53.933Z,5.83
2018-08-17T07:47:22.666Z,5.73
2018-08-17T07:49:51.397Z,5.93
2018-08-17T07:52:20.076Z,6.03
2018-08-17T07:54:48.695Z,5.60
2018-08-17T07:57:17.900Z,5.50
2018-08-17T07:59:46.553Z,5.43
2018-08-17T08:02:15.262Z,4.90
2018-08-17T08:04:44.055Z,4.47
2018-08-17T08:07:12.709Z,4.70
2018-08-17T08:09:41.434Z,4.90
2018-08-17T08:12:10.208Z,4.90
2018-08-17T08:14:38.788Z,5.33
2018-08-17T08:17:07.530Z,4.60
2018-08-17T08:19:36.381Z,4.80
2018-08-17T08:22:05.263Z,4.47
2018-08-17T08:24:37.651Z,4.40
2018-08-17T08:27:07.648Z,4.33
2018-08-17T08:29:36.478Z,4.37
2018-08-17T08:32:05.183Z,3.77
2018-08-17T08:34:33.745Z,6.17
2018-08-17T08:37:02.795Z,4.73
2018-08-17T08:39:31.440Z,4.67
2018-08-17T08:42:00.026Z,4.53
2018-08-17T08:44:28.773Z,4.20
2018-08-17T08:46:57.503Z,4.13
2018-08-17T08:49:26.288Z,4.30
2018-08-17T08:51:54.900Z,3.73
2018-08-17T08:54:23.575Z,3.70
2018-08-17T08:56:52.257Z,3.63
2018-08-17T08:59:21.223Z,4.20
2018-08-17T09:01:50.156Z,4.13
2018-08-17T09:04:19.127Z,4.30
2018-08-17T09:06:48.068Z,4.10
2018-08-17T09:09:16.830Z,4.10
2018-08-17T09:11:45.424Z,3.70
2018-08-17T09:14:14.867Z,4.17
2018-08-17T09:16:43.704Z,2.90
2018-08-17T09:19:12.454Z,3.23
2018-08-17T09:21:41.128Z,3.00
2018-08-17T09:24:09.808Z,3.70
2018-08-17T09:26:38.502Z,5.87
2018-08-17T09:29:07.242Z,8.10
2018-08-17T09:31:36.098Z,3.83
2018-08-17T09:34:04.992Z,3.40
2018-08-17T09:36:33.724Z,3.60
2018-08-17T09:39:02.861Z,3.10
2018-08-17T09:41:31.637Z,3.87
2018-08-17T09:44:00.618Z,3.90
2018-08-17T09:46:29.291Z,3.43
2018-08-17T09:48:57.999Z,3.40
2018-08-17T09:51:27.105Z,3.37
2018-08-17T09:53:55.605Z,3.60
2018-08-17T09:56:24.410Z,3.70
2018-08-17T09:58:53.586Z,3.40
2018-08-17T10:01:27.462Z,3.37
2018-08-17T10:04:01.578Z,3.10
2018-08-17T10:06:36.453Z,3.40
2018-08-17T10:09:15.974Z,4.00
2018-08-17T10:11:44.644Z,3.37
2018-08-17T10:14:13.487Z,3.57
2018-08-17T10:16:42.181Z,3.10
2018-08-17T10:19:10.748Z,2.80
2018-08-17T10:21:44.011Z,2.83
2018-08-17T10:24:12.227Z,3.57
2018-08-17T10:26:42.286Z,3.43
2018-08-17T10:29:11.045Z,3.53
2018-08-17T10:31:39.693Z,3.10
2018-08-17T10:34:08.835Z,3.20
2018-08-17T10:36:37.744Z,3.30
2018-08-17T10:39:07.536Z,3.30
2018-08-17T10:41:36.212Z,3.07
2018-08-17T10:44:05.770Z,3.37
2018-08-17T10:46:34.737Z,3.33
2018-08-17T10:49:03.445Z,3.00
2018-08-17T10:51:32.257Z,3.50
2018-08-17T10:54:03.297Z,3.07
2018-08-17T10:56:32.061Z,3.20
2018-08-17T10:59:00.717Z,3.17
2018-08-17T11:01:29.533Z,3.27
2018-08-17T11:03:58.455Z,3.00
2018-08-17T11:06:28.242Z,3.03
2018-08-17T11:08:56.911Z,3.43
2018-08-17T11:11:25.604Z,3.00
2018-08-17T11:13:54.303Z,3.30
2018-08-17T11:16:22.998Z,3.37
2018-08-17T11:18:51.598Z,2.60
2018-08-17T11:21:20.224Z,2.70
2018-08-17T11:23:48.947Z,2.80
2018-08-17T11:26:17.595Z,3.00
2018-08-17T11:28:46.342Z,2.93
2018-08-17T11:31:14.937Z,3.10
2018-08-17T11:33:43.537Z,2.80
2018-08-17T11:36:12.130Z,2.67
2018-08-17T11:38:40.770Z,2.40
2018-08-17T11:41:11.653Z,3.15
2018-08-17T11:43:40.406Z,2.58
2018-08-17T11:46:09.148Z,2.60
2018-08-17T11:48:38.416Z,2.98
2018-08-17T11:51:07.141Z,2.70
2018-08-17T11:53:36.444Z,2.70
2018-08-17T11:56:05.136Z,2.90
2018-08-17T11:58:33.748Z,2.90
2018-08-17T12:01:06.760Z,3.10
2018-08-17T12:03:35.937Z,2.70
2018-08-17T12:06:04.641Z,2.83
2018-08-17T12:08:33.423Z,2.90
2018-08-17T12:11:06.601Z,2.60
2018-08-17T12:13:38.789Z,2.52
2018-08-17T12:16:11.007Z,2.77
2018-08-17T12:18:39.724Z,2.58
2018-08-17T12:21:08.372Z,2.80
2018-08-17T12:23:37.105Z,3.20
2018-08-17T12:26:06.377Z,2.90
2018-08-17T12:28:35.011Z,2.77
2018-08-17T12:31:03.694Z,3.05
2018-08-17T12:33:32.399Z,3.10
2018-08-17T12:36:00.985Z,3.10
2018-08-17T12:38:29.867Z,3.65
2018-08-17T12:40:59.597Z,2.80
2018-08-17T12:43:33.473Z,3.40
2018-08-17T12:46:02.636Z,3.67
2018-08-17T12:48:32.101Z,3.20
2018-08-17T12:51:05.037Z,2.77
2018-08-17T12:53:33.777Z,2.70
2018-08-17T12:56:02.410Z,2.95
2018-08-17T12:58:31.204Z,3.02
2018-08-17T13:00:59.873Z,2.83
2018-08-17T13:03:28.738Z,3.00
2018-08-17T13:05:57.409Z,2.90
2018-08-17T13:08:26.419Z,2.60
2018-08-17T13:10:58.988Z,2.67
2018-08-17T13:13:27.614Z,2.90
2018-08-17T13:16:01.713Z,2.77
2018-08-17T13:18:33.274Z,2.92
2018-08-17T13:21:02.193Z,2.87
2018-08-17T13:23:30.987Z,2.60
2018-08-17T13:25:59.838Z,2.60
2018-08-17T13:28:28.716Z,2.70
2018-08-17T13:30:57.445Z,2.53
2018-08-17T13:33:26.139Z,2.47
2018-08-17T13:35:55.838Z,2.42
2018-08-17T13:38:24.513Z,2.70
2018-08-17T13:40:53.121Z,2.62
2018-08-17T13:43:21.672Z,2.50
2018-08-17T13:45:50.368Z,2.72
2018-08-17T13:48:19.056Z,2.40
2018-08-17T13:50:47.753Z,2.70
2018-08-17T13:53:16.439Z,2.85
2018-08-17T13:55:46.066Z,2.67
2018-08-17T13:58:16.107Z,2.67
2018-08-17T14:00:44.673Z,2.90
2018-08-17T14:03:13.424Z,3.15
2018-08-17T14:05:42.240Z,2.70
2018-08-17T14:08:10.882Z,3.33
2018-08-17T14:10:39.681Z,3.00
2018-08-17T14:13:08.477Z,2.92
2018-08-17T14:15:37.346Z,2.60
2018-08-17T14:18:06.350Z,2.75
2018-08-17T14:20:35.021Z,2.58
2018-08-17T14:23:03.731Z,2.60
2018-08-17T14:25:32.428Z,2.55
2018-08-17T14:28:01.192Z,6.78
2018-08-17T14:30:29.869Z,3.72
2018-08-17T14:32:58.520Z,2.72
2018-08-17T14:35:27.181Z,2.80
2018-08-17T14:37:55.828Z,2.58
2018-08-17T14:40:24.773Z,2.80
2018-08-17T14:42:53.459Z,2.50
2018-08-17T14:45:22.135Z,2.58
2018-08-17T14:47:51.740Z,2.35
2018-08-17T14:50:20.349Z,2.40
2018-08-17T14:52:48.917Z,2.60
2018-08-17T14:55:17.624Z,2.45
2018-08-17T14:57:46.283Z,2.45
2018-08-17T15:00:15.709Z,2.17
2018-08-17T15:02:44.430Z,2.50
2018-08-17T15:05:14.458Z,2.22
2018-08-17T15:07:43.165Z,2.47
2018-08-17T15:10:13.724Z,2.70
2018-08-17T15:12:43.191Z,2.60
2018-08-17T15:15:13.054Z,2.52
2018-08-17T15:17:41.649Z,2.50
2018-08-17T15:20:12.247Z,2.63
2018-08-17T15:22:41.073Z,3.45
2018-08-17T15:25:09.701Z,3.02
2018-08-17T15:27:38.317Z,2.60
2018-08-17T15:30:08.730Z,2.83
2018-08-17T15:32:37.378Z,2.77
2018-08-17T15:35:07.369Z,3.15
2018-08-17T15:37:36.066Z,3.05
2018-08-17T15:40:06.907Z,2.78
2018-08-17T15:42:35.601Z,2.60
2018-08-17T15:45:07.550Z,3.22
2018-08-17T15:47:36.889Z,2.45
2018-08-17T15:50:15.219Z,2.98
2018-08-17T15:52:44.401Z,2.60
2018-08-17T15:55:13.370Z,2.22
2018-08-17T15:57:42.139Z,2.40
2018-08-17T16:00:12.907Z,2.07
2018-08-17T16:02:42.348Z,2.30
2018-08-17T16:05:11.222Z,2.35
2018-08-17T16:07:39.873Z,2.30
2018-08-17T16:10:10.177Z,3.30
2018-08-17T16:12:38.856Z,3.45
2018-08-17T16:15:08.540Z,3.33
2018-08-17T16:17:37.778Z,2.60
2018-08-17T16:20:07.616Z,2.67
2018-08-17T16:22:36.461Z,2.80
2018-08-17T16:25:05.337Z,3.90
2018-08-17T16:27:33.978Z,3.00
2018-08-17T16:30:02.709Z,2.77
2018-08-17T16:32:31.527Z,2.60
2018-08-17T16:35:00.096Z,3.00
2018-08-17T16:37:28.851Z,3.08
2018-08-17T16:39:57.477Z,2.50
2018-08-17T16:42:31.185Z,2.70
2018-08-17T16:45:00.495Z,2.45
2018-08-17T16:47:29.176Z,2.60
2018-08-17T16:49:57.797Z,3.10
2018-08-17T16:52:26.719Z,3.12
2018-08-17T16:54:55.434Z,2.72
2018-08-17T16:57:24.031Z,4.10
2018-08-17T16:59:52.707Z,2.77
2018-08-17T17:02:21.560Z,3.30
2018-08-17T17:04:50.333Z,3.52
2018-08-17T17:07:19.164Z,2.72
2018-08-17T17:09:47.787Z,2.92
2018-08-17T17:12:20.692Z,3.70
2018-08-17T17:14:49.357Z,4.35
2018-08-17T17:17:19.102Z,4.08
2018-08-17T17:19:47.797Z,3.55
2018-08-17T17:22:16.598Z,3.00
2018-08-17T17:24:45.258Z,2.80
2018-08-17T17:27:19.007Z,3.12
2018-08-17T17:29:48.156Z,36.15
2018-08-17T17:32:19.149Z,85.25
2018-08-17T17:34:47.957Z,129.90
2018-08-17T17:37:16.684Z,155.00
2018-08-17T17:39:45.305Z,143.97
2018-08-17T17:42:13.927Z,104.43
2018-08-17T17:44:42.738Z,89.53
2018-08-17T17:47:11.704Z,90.20
2018-08-17T17:49:40.576Z,16.80
2018-08-17T17:52:09.385Z,4.43
2018-08-17T17:54:38.120Z,4.30
2018-08-17T17:57:09.816Z,5.60
2018-08-17T17:59:58.636Z,6.80
2018-08-17T18:02:28.449Z,4.30
2018-08-17T18:04:57.286Z,7.70
2018-08-17T18:07:33.899Z,7.30
2018-08-17T18:10:04.571Z,10.53
2018-08-17T18:12:34.233Z,10.03
2018-08-17T18:15:03.057Z,6.40
2018-08-17T18:17:31.815Z,7.50
2018-08-17T18:20:00.672Z,7.10
2018-08-17T18:22:35.041Z,8.57
2018-08-17T18:25:18.664Z,7.73
2018-08-17T18:27:49.319Z,5.30
2018-08-17T18:30:18.630Z,5.30
2018-08-17T18:32:47.614Z,6.50
2018-08-17T18:35:16.468Z,6.40
2018-08-17T18:37:46.814Z,7.67
2018-08-17T18:40:15.802Z,7.22
2018-08-17T18:42:44.672Z,7.73
2018-08-17T18:45:13.399Z,8.77
2018-08-17T18:47:42.182Z,11.67
2018-08-17T18:50:11.886Z,8.70
2018-08-17T18:52:40.925Z,8.00
2018-08-17T18:55:09.661Z,7.03
2018-08-17T18:57:38.452Z,7.67
2018-08-17T19:00:10.225Z,7.00
2018-08-17T19:02:39.094Z,6.30
2018-08-17T19:05:08.374Z,7.10
2018-08-17T19:07:37.829Z,7.00
2018-08-17T19:10:07.457Z,5.67
2018-08-17T19:12:36.618Z,5.83
2018-08-17T19:15:10.424Z,6.47
2018-08-17T19:17:39.605Z,6.33
2018-08-17T19:20:10.612Z,7.43
2018-08-17T19:22:41.848Z,7.87
2018-08-17T19:25:14.317Z,8.07
2018-08-17T19:27:43.801Z,8.40
2018-08-17T19:30:27.243Z,7.73
2018-08-17T19:32:59.154Z,8.23
2018-08-17T19:35:27.856Z,8.37
2018-08-17T19:37:56.791Z,7.30
2018-08-17T19:40:25.470Z,7.13
2018-08-17T19:42:54.291Z,7.03
2018-08-17T19:45:24.364Z,15.83
2018-08-17T19:47:53.052Z,9.63
2018-08-17T19:50:21.758Z,8.83
2018-08-17T19:52:50.433Z,9.17
2018-08-17T19:55:19.709Z,8.10
2018-08-17T19:57:49.433Z,8.20
2018-08-17T20:00:18.087Z,8.33
2018-08-17T20:02:46.718Z,8.57
2018-08-17T20:05:16.454Z,8.30
2018-08-17T20:07:45.237Z,8.60
2018-08-17T20:10:14.456Z,9.23
2018-08-17T20:12:44.369Z,10.23
2018-08-17T20:15:13.105Z,11.43
2018-08-17T20:17:48.162Z,11.50
2018-08-17T20:20:17.085Z,11.73
2018-08-17T20:22:46.030Z,11.30
2018-08-17T20:25:16.326Z,12.87
2018-08-17T20:27:45.742Z,11.30
2018-08-17T20:30:22.208Z,11.03
2018-08-17T20:32:51.180Z,11.13
2018-08-17T20:35:20.125Z,12.53
2018-08-17T20:37:51.176Z,12.77
2018-08-17T20:40:20.471Z,13.67
2018-08-17T20:42:49.575Z,13.23
2018-08-17T20:45:18.742Z,13.63
2018-08-17T20:47:47.548Z,13.73
2018-08-17T20:50:18.595Z,12.37
2018-08-17T20:52:53.315Z,12.57
2018-08-17T20:55:22.960Z,12.67
2018-08-17T20:57:52.918Z,13.40
2018-08-17T21:00:22.768Z,13.67
2018-08-17T21:02:51.382Z,13.13
2018-08-17T21:05:20.282Z,12.03
2018-08-17T21:07:49.673Z,10.73
2018-08-17T21:10:18.449Z,12.10
2018-08-17T21:12:47.892Z,12.30
2018-08-17T21:15:16.843Z,11.67
2018-08-17T21:17:45.716Z,13.10
2018-08-17T21:20:14.577Z,11.53
2018-08-17T21:22:43.420Z,12.03
2018-08-17T21:25:13.230Z,12.30
2018-08-17T21:27:42.074Z,11.90
2018-08-17T21:30:11.161Z,12.50
2018-08-17T21:32:39.985Z,12.33
2018-08-17T21:35:09.075Z,12.13
2018-08-17T21:37:38.229Z,12.37
2018-08-17T21:40:14.005Z,11.83
2018-08-17T21:42:42.657Z,11.97
2018-08-17T21:45:11.346Z,12.23
2018-08-17T21:47:40.264Z,11.77
2018-08-17T21:50:14.851Z,12.57
2018-08-17T21:52:44.648Z,12.73
2018-08-17T21:55:13.694Z,13.53
2018-08-17T21:57:42.693Z,17.43
2018-08-17T22:00:26.585Z,18.37
2018-08-17T22:02:55.530Z,16.17
2018-08-17T22:05:32.796Z,16.10
2018-08-17T22:08:02.021Z,15.40
2018-08-17T22:10:31.268Z,15.93
2018-08-17T22:12:59.914Z,15.43
2018-08-17T22:15:30.355Z,15.33
2018-08-17T22:17:59.274Z,15.50
2018-08-17T22:20:28.228Z,14.83
2018-08-17T22:22:57.562Z,16.67
2018-08-17T22:25:26.378Z,15.97
2018-08-17T22:27:55.018Z,16.97
2018-08-17T22:30:25.736Z,16.53
2018-08-17T22:32:54.656Z,16.07
2018-08-17T22:35:23.464Z,15.37
2018-08-17T22:37:52.014Z,15.53
2018-08-17T22:40:20.689Z,15.40
2018-08-17T22:42:50.424Z,14.40
2018-08-17T22:45:19.474Z,15.27
2018-08-17T22:47:48.096Z,15.13
2018-08-17T22:50:17.024Z,14.27
2018-08-17T22:52:45.680Z,15.17
2018-08-17T22:55:14.605Z,15.60
2018-08-17T22:57:43.896Z,16.17
2018-08-17T23:00:26.072Z,15.80
2018-08-17T23:02:56.193Z,16.20
2018-08-17T23:05:29.257Z,17.90
2018-08-17T23:07:57.905Z,17.03
2018-08-17T23:10:27.734Z,16.07
2018-08-17T23:12:56.906Z,16.10
2018-08-17T23:15:25.938Z,16.43
2018-08-17T23:17:56.769Z,16.47
2018-08-17T23:20:30.700Z,17.40
2018-08-17T23:23:00.817Z,16.60
2018-08-17T23:25:30.044Z,16.40
2018-08-17T23:27:58.974Z,17.43
2018-08-17T23:30:27.654Z,15.47
2018-08-17T23:32:56.260Z,14.07
2018-08-17T23:35:25.176Z,15.07
2018-08-17T23:37:53.753Z,15.13
2018-08-17T23:40:22.369Z,13.80
2018-08-17T23:42:51.684Z,16.73
2018-08-17T23:45:20.412Z,16.67
2018-08-17T23:47:49.128Z,16.90
2018-08-17T23:50:18.735Z,15.77
2018-08-17T23:52:47.325Z,15.37
2018-08-17T23:55:18.136Z,15.23
2018-08-17T23:57:46.843Z,15.47
